Time;durP1;ratioP1;P1;durP2;ratioP2;P2;SDS_P1;SDS_P2;PMS_P1;PMS_P2;Temp;Humidity;BMP_temperature;BMP_pressure;BME280_temperature;BME280_humidity;BME280_pressure;Samples;Min_cycle;Max_cycle;Signal;HPM_P1;HPM_P2
2022/10/04 00:01:53;;;;;;;15.57;6.25;;;11.90;99.90;;;;;;4942505;28;19923;-86
2022/10/04 00:04:26;;;;;;;18.58;6.53;;;11.90;99.90;;;;;;4945337;28;20081;-86
2022/10/04 00:07:01;;;;;;;18.40;7.10;;;11.90;99.90;;;;;;4916002;28;20126;-86
2022/10/04 00:09:54;;;;;;;17.88;6.63;;;12.00;99.90;;;;;;4929673;28;20032;-86
2022/10/04 00:12:43;;;;;;;15.25;6.57;;;12.00;99.90;;;;;;4906847;28;20055;-86
2022/10/04 00:15:30;;;;;;;15.60;7.10;;;11.90;99.90;;;;;;4948043;28;20372;-87
2022/10/04 00:18:11;;;;;;;15.50;7.20;;;12.00;99.90;;;;;;4971993;28;20463;-86
2022/10/04 00:20:52;;;;;;;15.07;6.70;;;12.10;99.90;;;;;;4916364;28;20085;-86
2022/10/04 00:23:24;;;;;;;14.23;6.43;;;12.00;99.90;;;;;;4939254;28;20416;-86
2022/10/04 00:26:14;;;;;;;10.70;6.15;;;12.00;99.90;;;;;;4960079;28;20130;-86
2022/10/04 00:28:45;;;;;;;15.50;6.85;;;12.00;99.90;;;;;;4955591;28;20036;-86
2022/10/04 00:31:58;;;;;;;10.95;6.18;;;12.10;99.90;;;;;;4943950;28;20087;-87
2022/10/04 00:34:30;;;;;;;9.20;5.53;;;12.00;99.90;;;;;;4943573;28;20093;-86
2022/10/04 00:36:56;;;;;;;18.67;6.50;;;12.00;99.90;;;;;;4932286;28;20429;-85
2022/10/04 00:39:32;;;;;;;16.92;7.15;;;11.90;99.90;;;;;;4930883;28;20031;-86
2022/10/04 00:42:19;;;;;;;19.35;7.00;;;12.00;99.90;;;;;;4945642;28;20409;-86
2022/10/04 00:45:11;;;;;;;14.02;5.68;;;12.00;99.90;;;;;;4929634;28;20044;-86
2022/10/04 00:47:59;;;;;;;12.88;5.45;;;12.00;99.90;;;;;;4960254;28;20470;-86
2022/10/04 00:50:38;;;;;;;13.30;5.65;;;11.90;99.90;;;;;;4945182;28;20032;-85
2022/10/04 00:53:31;;;;;;;12.38;5.90;;;12.00;99.90;;;;;;4960144;28;20043;-86
2022/10/04 00:56:03;;;;;;;15.32;5.90;;;12.00;99.90;;;;;;4929782;28;20050;-86
2022/10/04 00:58:34;;;;;;;20.65;6.15;;;12.00;99.90;;;;;;4942252;28;20043;-85
2022/10/04 01:01:02;;;;;;;14.95;5.93;;;12.00;99.90;;;;;;4956554;28;20057;-86
2022/10/04 01:03:32;;;;;;;16.55;5.93;;;12.00;99.90;;;;;;4918628;28;20075;-86
2022/10/04 01:06:02;;;;;;;12.20;5.70;;;12.00;99.90;;;;;;4930146;28;20090;-86
2022/10/04 01:08:32;;;;;;;13.20;5.60;;;12.00;99.90;;;;;;4957313;28;21507;-86
2022/10/04 01:11:05;;;;;;;11.68;5.18;;;12.00;99.90;;;;;;4963610;28;20090;-85
2022/10/04 01:13:39;;;;;;;12.35;5.35;;;12.00;99.90;;;;;;4927756;28;20043;-86
2022/10/04 01:16:18;;;;;;;12.93;6.47;;;12.00;99.90;;;;;;4956838;28;20054;-85
2022/10/04 01:18:46;;;;;;;14.07;5.50;;;11.90;99.90;;;;;;4941958;28;20047;-85
2022/10/04 01:21:18;;;;;;;12.48;5.65;;;12.00;99.90;;;;;;4935187;28;20487;-87
2022/10/04 01:24:14;;;;;;;11.55;5.57;;;12.00;99.90;;;;;;4943193;28;20055;-86
2022/10/04 01:26:41;;;;;;;14.85;5.90;;;11.90;99.90;;;;;;4971275;28;20047;-85
2022/10/04 01:29:07;;;;;;;8.88;5.07;;;11.90;99.90;;;;;;4953764;28;20039;-86
2022/10/04 01:31:36;;;;;;;13.90;6.80;;;11.90;99.90;;;;;;4946471;28;20125;-86
2022/10/04 01:34:04;;;;;;;14.20;5.60;;;12.00;99.90;;;;;;4931609;28;20456;-85
2022/10/04 01:36:30;;;;;;;15.13;6.38;;;12.00;99.90;;;;;;4936106;28;20059;-85
2022/10/04 01:38:56;;;;;;;19.80;6.57;;;12.00;99.90;;;;;;4907686;28;20845;-86
2022/10/04 01:41:41;;;;;;;10.93;5.78;;;12.00;99.90;;;;;;4945003;28;20372;-87
2022/10/04 01:44:13;;;;;;;17.47;7.07;;;12.00;99.90;;;;;;4940644;28;20814;-87
2022/10/04 01:46:39;;;;;;;18.38;7.22;;;12.00;99.90;;;;;;4943458;28;20039;-87
2022/10/04 01:49:18;;;;;;;13.45;6.80;;;12.00;99.90;;;;;;4942054;28;20091;-88
2022/10/04 01:52:08;;;;;;;16.25;6.78;;;12.00;99.90;;;;;;4944693;28;20106;-88
2022/10/04 01:55:21;;;;;;;18.00;7.97;;;12.00;99.90;;;;;;4946344;28;20039;-86
2022/10/04 01:58:13;;;;;;;14.82;7.65;;;12.00;99.90;;;;;;4932899;28;20495;-86
2022/10/04 02:00:48;;;;;;;16.77;7.32;;;12.00;99.90;;;;;;4944128;28;20586;-87
2022/10/04 02:03:19;;;;;;;14.90;7.47;;;11.90;99.90;;;;;;4948684;28;20106;-87
2022/10/04 02:05:55;;;;;;;13.60;6.80;;;11.90;99.90;;;;;;4936240;28;20039;-85
2022/10/04 02:08:32;;;;;;;17.52;7.32;;;12.00;99.90;;;;;;4930937;28;20038;-85
2022/10/04 02:11:00;;;;;;;12.00;7.63;;;11.90;99.90;;;;;;4946733;28;20048;-86
2022/10/04 02:13:32;;;;;;;16.35;7.97;;;11.90;99.90;;;;;;4914369;28;20043;-87
2022/10/04 02:15:58;;;;;;;18.17;7.50;;;11.90;99.90;;;;;;4918449;28;20035;-87
2022/10/04 02:18:25;;;;;;;17.88;9.52;;;11.90;99.90;;;;;;4970776;28;20046;-87
2022/10/04 02:20:53;;;;;;;17.20;7.78;;;11.90;99.90;;;;;;4963083;28;20047;-85
2022/10/04 02:23:21;;;;;;;15.68;8.05;;;11.90;99.90;;;;;;4953098;28;20045;-86
2022/10/04 02:25:47;;;;;;;20.48;8.13;;;11.90;99.90;;;;;;4947970;28;20039;-87
2022/10/04 02:28:14;;;;;;;15.05;7.60;;;11.80;99.90;;;;;;4919291;28;20396;-87
2022/10/04 02:32:56;;;;;;;14.35;7.30;;;11.80;99.90;;;;;;4917707;28;20039;-85
2022/10/04 02:33:33;;;;;;;12.27;7.13;;;11.90;99.90;;;;;;4961123;28;20049;-86
2022/10/04 02:36:46;;;;;;;12.20;6.05;;;11.70;99.90;;;;;;4914465;28;20032;-87
2022/10/04 02:39:22;;;;;;;11.43;6.35;;;11.70;99.90;;;;;;4931713;28;20491;-86
2022/10/04 02:42:13;;;;;;;15.20;5.60;;;11.80;99.90;;;;;;4945473;28;20047;-87
2022/10/04 02:45:08;;;;;;;11.73;6.07;;;11.50;99.90;;;;;;4963635;28;20090;-86
2022/10/04 02:47:45;;;;;;;6.15;4.88;;;11.40;99.90;;;;;;4925373;28;20430;-85
2022/10/04 02:50:48;;;;;;;6.22;3.97;;;11.30;99.90;;;;;;4932720;29;20067;-86
2022/10/04 02:53:20;;;;;;;6.93;4.70;;;11.20;99.90;;;;;;4921864;28;20051;-87
2022/10/04 02:55:47;;;;;;;9.30;5.20;;;11.10;99.90;;;;;;4947291;28;20062;-85
2022/10/04 02:58:17;;;;;;;11.50;5.15;;;11.00;99.90;;;;;;4958001;28;20069;-87
2022/10/04 03:00:48;;;;;;;6.50;5.53;;;11.00;99.90;;;;;;4919718;28;20043;-86
2022/10/04 03:03:22;;;;;;;8.75;5.85;;;10.90;99.90;;;;;;4915846;28;20428;-87
2022/10/04 03:06:05;;;;;;;16.90;7.38;;;10.90;99.90;;;;;;4958927;28;20047;-87
2022/10/04 03:08:34;;;;;;;7.45;5.13;;;11.20;99.90;;;;;;4960665;28;20031;-87
2022/10/04 03:11:03;;;;;;;9.60;5.88;;;10.90;99.90;;;;;;4928267;28;20078;-86
2022/10/04 03:13:30;;;;;;;9.63;5.43;;;10.90;99.90;;;;;;4926902;28;20141;-86
2022/10/04 03:15:56;;;;;;;16.80;6.47;;;10.80;99.90;;;;;;4949675;28;20086;-86
2022/10/04 03:18:23;;;;;;;18.15;6.80;;;11.30;99.90;;;;;;4937657;28;20078;-86
2022/10/04 03:20:48;;;;;;;9.00;5.47;;;10.80;99.90;;;;;;4932720;28;20038;-86
2022/10/04 03:23:17;;;;;;;10.85;4.60;;;10.80;99.90;;;;;;4927459;28;20082;-87
2022/10/04 03:26:11;;;;;;;9.90;5.50;;;10.70;99.90;;;;;;4928353;28;20068;-86
2022/10/04 03:28:37;;;;;;;10.35;6.03;;;10.70;99.90;;;;;;4957408;28;20086;-86
2022/10/04 03:31:03;;;;;;;11.77;5.93;;;10.60;99.90;;;;;;4939245;28;20043;-86
2022/10/04 03:33:29;;;;;;;11.95;6.28;;;10.60;99.90;;;;;;4914054;28;20613;-85
2022/10/04 03:35:57;;;;;;;11.48;6.82;;;10.60;99.90;;;;;;4934576;28;20031;-87
2022/10/04 03:38:25;;;;;;;6.50;4.85;;;10.60;99.90;;;;;;4914397;28;20042;-87
2022/10/04 03:41:00;;;;;;;6.50;3.95;;;10.80;99.90;;;;;;4932590;28;20051;-86
2022/10/04 03:43:33;;;;;;;15.73;5.43;;;10.50;99.90;;;;;;4928927;28;20039;-87
2022/10/04 03:46:00;;;;;;;15.50;6.20;;;10.50;99.90;;;;;;4959023;28;20044;-86
2022/10/04 03:48:33;;;;;;;25.05;7.53;;;10.40;99.90;;;;;;4914712;28;20062;-87
2022/10/04 03:51:01;;;;;;;11.85;7.03;;;10.40;99.90;;;;;;4930659;28;20039;-85
2022/10/04 03:53:42;;;;;;;8.73;4.63;;;10.40;99.90;;;;;;4915557;28;20062;-87
2022/10/04 03:56:31;;;;;;;12.48;4.82;;;10.40;99.90;;;;;;4922243;28;20039;-85
2022/10/04 03:58:58;;;;;;;7.47;4.93;;;10.30;99.90;;;;;;4915219;28;20400;-86
2022/10/04 04:01:50;;;;;;;12.27;6.43;;;10.30;99.90;;;;;;4915142;28;20039;-86
2022/10/04 04:04:22;;;;;;;10.35;5.93;;;10.30;99.90;;;;;;4909705;28;20515;-85
2022/10/04 04:06:55;;;;;;;8.38;5.28;;;10.30;99.90;;;;;;4910697;28;20039;-84
2022/10/04 04:09:30;;;;;;;9.45;5.40;;;10.20;99.90;;;;;;4949029;28;20039;-85
2022/10/04 04:11:59;;;;;;;9.35;5.90;;;10.20;99.90;;;;;;4941408;28;20041;-86
2022/10/04 04:14:26;;;;;;;7.97;5.47;;;10.20;99.90;;;;;;4921691;28;20047;-87
2022/10/04 04:17:16;;;;;;;11.10;6.47;;;10.10;99.90;;;;;;4930510;28;20503;-86
2022/10/04 04:19:42;;;;;;;9.95;5.38;;;10.10;99.90;;;;;;4927377;28;20054;-86
2022/10/04 04:22:15;;;;;;;7.05;5.18;;;10.00;99.90;;;;;;4924448;28;21838;-86
2022/10/04 04:24:42;;;;;;;9.38;5.43;;;10.00;99.90;;;;;;4912451;28;20042;-86
2022/10/04 04:27:09;;;;;;;9.65;6.03;;;9.90;99.90;;;;;;4946967;28;20035;-86
2022/10/04 04:29:59;;;;;;;16.27;6.43;;;9.90;99.90;;;;;;4955075;28;20122;-87
2022/10/04 04:32:39;;;;;;;10.20;5.15;;;10.00;99.90;;;;;;4911329;28;20035;-87
2022/10/04 04:35:41;;;;;;;9.63;5.88;;;9.70;99.90;;;;;;4954144;28;20079;-88
2022/10/04 04:41:35;;;;;;;6.75;4.90;;;9.90;99.90;;;;;;4923560;28;20089;-86
2022/10/04 04:44:02;;;;;;;6.97;5.22;;;9.80;99.90;;;;;;4953153;28;20099;-85
2022/10/04 04:46:29;;;;;;;5.60;4.55;;;9.80;99.90;;;;;;4937630;28;20085;-86
2022/10/04 04:49:02;;;;;;;5.32;4.75;;;9.80;99.90;;;;;;4954137;28;20039;-85
2022/10/04 04:51:28;;;;;;;9.60;5.88;;;9.70;99.90;;;;;;4951086;28;20570;-87
2022/10/04 04:53:55;;;;;;;19.48;9.10;;;9.80;99.90;;;;;;4957126;28;20395;-87
2022/10/04 04:56:26;;;;;;;12.70;7.95;;;9.80;99.90;;;;;;4942079;28;21585;-86
2022/10/04 04:58:54;;;;;;;16.58;10.13;;;9.80;99.90;;;;;;4942493;28;20068;-86
2022/10/04 05:01:25;;;;;;;18.63;9.90;;;9.90;99.90;;;;;;4940889;28;20568;-86
2022/10/04 05:04:11;;;;;;;16.00;10.65;;;10.00;99.90;;;;;;4919021;28;20073;-84
2022/10/04 05:06:39;;;;;;;22.75;11.82;;;10.00;99.90;;;;;;4916121;28;20082;-81
2022/10/04 05:09:19;;;;;;;19.13;11.57;;;10.10;99.90;;;;;;4926021;28;20039;-85
2022/10/04 05:11:44;;;;;;;19.63;11.20;;;10.10;99.90;;;;;;4932377;28;20043;-89
2022/10/04 05:14:12;;;;;;;14.80;9.93;;;10.10;99.90;;;;;;4945280;28;20094;-86
2022/10/04 05:16:48;;;;;;;18.38;11.52;;;10.10;99.90;;;;;;4928941;28;20054;-87
2022/10/04 05:19:27;;;;;;;19.25;11.52;;;10.10;99.90;;;;;;4956593;28;20047;-88
2022/10/04 05:21:59;;;;;;;24.35;12.27;;;10.10;99.90;;;;;;4948230;28;20093;-87
2022/10/04 05:24:33;;;;;;;17.45;9.85;;;10.10;99.90;;;;;;4938276;28;20054;-86
2022/10/04 05:27:24;;;;;;;13.32;8.18;;;10.20;99.90;;;;;;4927104;28;20118;-87
2022/10/04 05:30:21;;;;;;;20.40;11.07;;;10.00;99.90;;;;;;4906071;28;20050;-89
2022/10/04 05:32:55;;;;;;;;;;;10.00;99.90;;;;;;4935933;28;20051;-86
2022/10/04 05:35:22;;;;;;;17.67;10.77;;;10.00;99.90;;;;;;4949292;28;20143;-86
2022/10/04 05:38:22;;;;;;;17.27;9.73;;;10.30;99.90;;;;;;4948263;28;20050;-88
2022/10/04 05:41:13;;;;;;;22.17;12.80;;;10.30;99.90;;;;;;4949390;28;20608;-88
2022/10/04 05:43:50;;;;;;;21.23;13.52;;;10.00;99.90;;;;;;4919918;28;20646;-84
2022/10/04 05:46:26;;;;;;;27.95;13.52;;;10.50;99.90;;;;;;4929036;28;20114;-87
2022/10/04 05:49:10;;;;;;;15.73;10.40;;;10.00;99.90;;;;;;4957107;28;20038;-83
2022/10/04 05:52:01;;;;;;;14.98;9.75;;;10.00;99.90;;;;;;4964536;28;20131;-87
2022/10/04 05:54:34;;;;;;;18.17;11.18;;;10.00;99.90;;;;;;4928581;28;21704;-86
2022/10/04 05:57:23;;;;;;;21.42;12.10;;;10.00;99.90;;;;;;4910834;28;20053;-87
2022/10/04 05:59:58;;;;;;;18.98;10.75;;;10.10;99.90;;;;;;4918007;28;20053;-87
2022/10/04 06:02:54;;;;;;;22.10;11.68;;;10.10;99.90;;;;;;4944355;28;20054;-86
2022/10/04 06:05:53;;;;;;;23.95;12.77;;;10.10;99.90;;;;;;4907614;28;20098;-87
2022/10/04 06:08:55;;;;;;;18.83;11.80;;;10.20;99.90;;;;;;4945524;28;20051;-84
2022/10/04 06:12:01;;;;;;;17.88;10.80;;;10.20;99.90;;;;;;4920630;28;20062;-85
2022/10/04 06:15:08;;;;;;;17.77;11.77;;;10.80;99.90;;;;;;4938464;28;20040;-84
2022/10/04 06:18:09;;;;;;;18.58;11.40;;;10.30;99.90;;;;;;4962181;28;20044;-88
2022/10/04 06:21:15;;;;;;;17.65;11.27;;;10.40;99.90;;;;;;4913892;28;20055;-87
2022/10/04 06:24:11;;;;;;;17.55;10.85;;;10.50;99.90;;;;;;4914988;28;20051;-86
2022/10/04 06:26:58;;;;;;;17.75;10.27;;;10.80;99.90;;;;;;4915155;28;20063;-86
2022/10/04 06:30:11;;;;;;;22.02;11.00;;;10.90;99.90;;;;;;4928456;28;20035;-88
2022/10/04 06:37:04;;;;;;;18.80;9.75;;;11.30;99.90;;;;;;4919129;29;20042;-88
2022/10/04 06:59:10;;;;;;;12.10;10.13;;;11.40;99.90;;;;;;4878115;29;20309;-88
2022/10/04 09:53:02;;;;;;;6.30;4.55;;;15.40;99.90;;;;;;4934804;28;20081;-88
2022/10/04 10:29:42;;;;;;;8.60;3.90;;;17.60;99.90;;;;;;4871493;29;20682;-87
2022/10/04 10:32:32;;;;;;;13.20;4.10;;;17.80;99.90;;;;;;4855158;28;20039;-88
2022/10/04 10:38:39;;;;;;;10.57;3.60;;;18.10;99.90;;;;;;4932872;28;20066;-85
2022/10/04 10:41:26;;;;;;;12.93;3.92;;;18.50;99.90;;;;;;4943663;28;20043;-86
2022/10/04 10:48:18;;;;;;;10.85;3.65;;;18.50;99.90;;;;;;4929714;28;20080;-85
2022/10/04 10:51:29;;;;;;;7.70;3.17;;;18.70;99.90;;;;;;4932258;28;20325;-87
2022/10/04 10:54:19;;;;;;;13.15;3.78;;;18.80;99.90;;;;;;4931319;28;20077;-86
2022/10/04 10:57:51;;;;;;;9.43;3.78;;;19.10;99.90;;;;;;4904312;28;20059;-87
2022/10/04 11:08:31;;;;;;;7.97;2.90;;;19.10;99.90;;;;;;4943639;28;20508;-87
2022/10/04 11:11:40;;;;;;;9.52;3.40;;;19.10;99.90;;;;;;4908201;28;20102;-86
2022/10/04 11:14:22;;;;;;;10.05;3.33;;;19.20;99.90;;;;;;4927463;28;20055;-86
2022/10/04 11:16:57;;;;;;;4.70;3.03;;;19.30;99.90;;;;;;4930753;28;20036;-81
2022/10/04 11:19:53;;;;;;;10.55;4.45;;;19.30;99.90;;;;;;4924398;28;20088;-84
2022/10/04 11:22:56;;;;;;;12.57;4.65;;;19.30;99.90;;;;;;4914685;28;20420;-84
2022/10/04 11:25:46;;;;;;;10.25;3.20;;;19.30;99.90;;;;;;4927846;28;20043;-83
2022/10/04 11:28:29;;;;;;;13.27;3.55;;;19.20;99.90;;;;;;4943255;28;20059;-83
2022/10/04 11:35:44;;;;;;;10.02;3.90;;;19.30;99.90;;;;;;4851465;29;20056;-84
2022/10/04 11:38:50;;;;;;;7.72;4.05;;;19.40;99.90;;;;;;4825063;29;20097;-84
2022/10/04 11:46:11;;;;;;;8.25;3.95;;;19.60;99.90;;;;;;4832423;29;20064;-83
2022/10/04 11:49:05;;;;;;;19.88;4.45;;;19.60;99.90;;;;;;4852166;29;20547;-84
2022/10/04 11:51:49;;;;;;;7.97;4.18;;;19.50;99.90;;;;;;4900438;29;20192;-83
2022/10/04 11:54:44;;;;;;;6.20;3.17;;;19.40;99.90;;;;;;4878697;29;20449;-84
2022/10/04 11:57:50;;;;;;;6.28;3.40;;;19.40;99.90;;;;;;4891551;29;20174;-84
2022/10/04 12:00:19;;;;;;;22.10;4.53;;;19.50;99.90;;;;;;4901199;29;20044;-85
2022/10/04 12:02:53;;;;;;;9.73;4.30;;;19.60;99.90;;;;;;4884912;29;20079;-83
2022/10/04 12:05:58;;;;;;;9.90;4.05;;;19.70;99.90;;;;;;4877248;29;21065;-84
2022/10/04 12:08:39;;;;;;;8.07;3.90;;;19.60;99.90;;;;;;4832477;29;20064;-84
2022/10/04 12:15:34;;;;;;;9.73;3.80;;;19.20;99.90;;;;;;4845787;29;20113;-83
2022/10/04 12:18:18;;;;;;;11.95;4.40;;;19.30;99.90;;;;;;4838648;29;20238;-85
2022/10/04 12:20:51;;;;;;;6.45;4.20;;;19.40;99.90;;;;;;4917009;28;20122;-85
2022/10/04 12:23:39;;;;;;;10.23;3.80;;;19.40;99.90;;;;;;4882800;29;20357;-83
2022/10/04 12:26:38;;;;;;;13.75;4.80;;;19.50;99.90;;;;;;4908857;29;20044;-85
2022/10/04 12:29:27;;;;;;;8.88;4.30;;;19.60;99.90;;;;;;4876053;29;20048;-84
2022/10/04 12:32:09;;;;;;;8.50;4.63;;;19.50;99.90;;;;;;4888463;29;20040;-85
2022/10/04 12:35:13;;;;;;;11.75;4.82;;;19.50;99.90;;;;;;4900914;29;20062;-84
2022/10/04 12:38:11;;;;;;;6.68;4.18;;;19.50;99.90;;;;;;4869622;29;20166;-85
2022/10/04 12:40:47;;;;;;;8.95;3.95;;;19.60;99.90;;;;;;4918096;28;20040;-85
2022/10/04 12:43:20;;;;;;;12.65;4.72;;;19.60;99.90;;;;;;4890757;29;20050;-85
2022/10/04 12:53:33;;;;;;;7.60;4.20;;;19.50;99.90;;;;;;4897762;28;20239;-84
2022/10/04 13:11:23;;;;;;;10.32;3.53;;;19.40;99.90;;;;;;4824543;29;20136;-84
2022/10/04 13:25:37;;;;;;;11.38;4.05;;;19.50;99.90;;;;;;4779621;29;20041;-84
2022/10/04 13:36:57;;;;;;;7.35;3.97;;;18.80;99.90;;;;;;4794682;29;20213;-83
2022/10/04 13:44:26;;;;;;;6.30;2.72;;;18.70;99.90;;;;;;4908886;28;20238;-84
2022/10/04 13:47:08;;;;;;;10.85;3.40;;;18.80;99.90;;;;;;4902873;28;20517;-84
2022/10/04 13:50:11;;;;;;;10.38;4.07;;;18.80;99.90;;;;;;4949478;28;20051;-84
2022/10/04 13:59:03;;;;;;;10.88;3.05;;;18.80;99.90;;;;;;4912942;28;20109;-83
2022/10/04 14:02:03;;;;;;;6.88;3.00;;;18.80;99.90;;;;;;4930840;28;20125;-85
2022/10/04 14:04:57;;;;;;;4.63;2.28;;;18.80;99.90;;;;;;4932087;28;20043;-85
2022/10/04 14:07:52;;;;;;;9.45;3.35;;;18.70;99.90;;;;;;4911143;29;20039;-85
2022/10/04 14:10:43;;;;;;;10.80;3.10;;;18.60;99.90;;;;;;4921170;28;20545;-84
2022/10/04 14:13:22;;;;;;;10.48;2.38;;;18.60;99.90;;;;;;4943052;28;20086;-83
2022/10/04 14:16:24;;;;;;;6.85;1.92;;;18.50;99.90;;;;;;4945983;28;20047;-83
2022/10/04 14:22:46;;;;;;;;;;;18.40;99.90;;;;;;4901335;28;20046;-84
2022/10/04 14:26:06;;;;;;;6.47;2.40;;;18.30;99.90;;;;;;4928987;28;19922;-83
2022/10/04 14:29:03;;;;;;;6.78;2.30;;;18.20;99.90;;;;;;4869552;28;20050;-83
2022/10/04 14:31:59;;;;;;;5.45;2.03;;;18.10;99.90;;;;;;4926859;28;20043;-83
2022/10/04 14:34:55;;;;;;;6.45;2.00;;;18.10;99.90;;;;;;4916401;28;20049;-84
2022/10/04 14:37:40;;;;;;;;;;;18.10;99.90;;;;;;4917502;28;20361;-84
2022/10/04 14:40:23;;;;;;;5.55;2.33;;;18.00;99.90;;;;;;4903292;28;20356;-85
2022/10/04 14:43:16;;;;;;;6.82;2.05;;;18.10;99.90;;;;;;4929251;28;20094;-83
2022/10/04 14:46:06;;;;;;;12.18;2.55;;;18.00;99.90;;;;;;4897893;28;20074;-84
2022/10/04 14:48:57;;;;;;;7.55;2.30;;;17.90;99.90;;;;;;4912948;28;20062;-85
2022/10/04 14:51:41;;;;;;;11.50;2.17;;;17.90;99.90;;;;;;4944560;28;20078;-83
2022/10/04 14:54:14;;;;;;;10.32;2.55;;;17.80;99.90;;;;;;4904825;28;20054;-83
2022/10/04 14:56:57;;;;;;;8.65;2.75;;;17.80;99.90;;;;;;4926549;28;20392;-84
2022/10/04 14:59:31;;;;;;;6.22;2.55;;;17.80;99.90;;;;;;4930291;28;20036;-85
2022/10/04 15:02:06;;;;;;;7.20;2.67;;;17.70;99.90;;;;;;4942433;28;20050;-84
2022/10/04 15:05:01;;;;;;;7.53;3.17;;;17.80;99.90;;;;;;4948267;28;20043;-83
2022/10/04 15:07:48;;;;;;;10.85;2.75;;;17.80;99.90;;;;;;4943423;28;20042;-84
2022/10/04 15:10:47;;;;;;;7.13;1.92;;;17.70;99.90;;;;;;4913238;28;20039;-84
2022/10/04 15:13:47;;;;;;;9.65;1.98;;;17.70;99.90;;;;;;4961480;28;20046;-84
2022/10/04 15:16:32;;;;;;;6.63;1.90;;;17.60;99.90;;;;;;4944928;28;20123;-84
2022/10/04 15:19:11;;;;;;;5.95;2.05;;;17.50;99.90;;;;;;4926659;28;20040;-83
2022/10/04 15:21:46;;;;;;;6.03;2.40;;;17.50;99.90;;;;;;4960719;28;20142;-84
2022/10/04 15:24:15;;;;;;;7.35;1.95;;;17.40;99.90;;;;;;4959682;28;20042;-85
2022/10/04 15:27:08;;;;;;;7.45;1.92;;;17.40;99.90;;;;;;4942750;28;20184;-85
2022/10/04 15:29:42;;;;;;;8.70;2.63;;;17.30;99.90;;;;;;4930504;28;20050;-85
2022/10/04 15:32:37;;;;;;;6.00;2.28;;;17.20;99.90;;;;;;4943950;28;20079;-84
2022/10/04 15:35:21;;;;;;;7.65;1.67;;;17.20;99.90;;;;;;4915750;28;20043;-85
2022/10/04 15:38:12;;;;;;;5.13;1.67;;;17.10;99.90;;;;;;4943622;28;20056;-83
2022/10/04 15:41:03;;;;;;;7.60;2.05;;;17.10;99.90;;;;;;4939912;28;20760;-84
2022/10/04 15:43:42;;;;;;;5.88;1.73;;;17.10;99.90;;;;;;4930509;28;20039;-85
2022/10/04 15:46:46;;;;;;;6.55;2.05;;;17.00;99.90;;;;;;4930059;28;20157;-84
2022/10/04 15:49:36;;;;;;;11.15;1.92;;;17.00;99.90;;;;;;4866804;29;20044;-83
2022/10/04 15:52:18;;;;;;;5.10;1.58;;;16.90;99.90;;;;;;4882281;29;20099;-84
2022/10/04 15:54:53;;;;;;;6.03;1.83;;;17.00;99.90;;;;;;4921713;28;20058;-84
2022/10/04 15:57:45;;;;;;;7.13;2.33;;;16.90;99.90;;;;;;4910876;28;20050;-84
2022/10/04 16:00:42;;;;;;;4.80;2.15;;;16.90;99.90;;;;;;4955595;28;20134;-84
2022/10/04 16:03:23;;;;;;;;;;;16.80;99.90;;;;;;4907204;28;20070;-84
2022/10/04 16:06:20;;;;;;;3.80;1.80;;;16.80;99.90;;;;;;4935513;28;19923;-83
2022/10/04 16:09:14;;;;;;;5.05;1.75;;;16.70;99.90;;;;;;4938770;28;20062;-83
2022/10/04 16:11:49;;;;;;;11.10;2.60;;;16.70;99.90;;;;;;4935843;28;20070;-87
2022/10/04 16:14:27;;;;;;;;;;;16.60;99.90;;;;;;4954551;28;20412;-85
2022/10/04 16:17:18;;;;;;;7.57;2.42;;;16.60;99.90;;;;;;4960139;28;20298;-85
2022/10/04 16:20:22;;;;;;;7.63;2.08;;;16.50;99.90;;;;;;4932564;28;20539;-85
2022/10/04 16:23:22;;;;;;;8.45;2.63;;;16.40;99.90;;;;;;4918148;28;20051;-85
2022/10/04 16:25:49;;;;;;;6.60;1.80;;;16.30;99.90;;;;;;4951455;28;20503;-85
2022/10/04 16:28:25;;;;;;;5.60;2.05;;;16.30;99.90;;;;;;4936054;28;20103;-86
2022/10/04 16:31:16;;;;;;;7.82;2.42;;;16.20;99.90;;;;;;4936116;28;20067;-86
2022/10/04 16:34:14;;;;;;;6.05;2.60;;;16.20;99.90;;;;;;4919939;28;20090;-84
2022/10/04 16:36:57;;;;;;;9.88;2.88;;;16.10;99.90;;;;;;4900725;28;20071;-85
2022/10/04 16:40:02;;;;;;;8.18;2.75;;;16.10;99.90;;;;;;4933996;28;20070;-85
2022/10/04 16:42:49;;;;;;;6.97;2.40;;;16.10;99.90;;;;;;4907850;28;20554;-86
2022/10/04 16:45:42;;;;;;;9.10;2.92;;;16.00;99.90;;;;;;4949165;28;20043;-85
2022/10/04 16:48:22;;;;;;;8.52;3.28;;;15.90;99.90;;;;;;4925554;28;20165;-86
2022/10/04 16:51:06;;;;;;;10.05;2.67;;;15.90;99.90;;;;;;4938245;28;20105;-84
2022/10/04 16:54:00;;;;;;;6.85;3.00;;;15.80;99.90;;;;;;4933765;28;20051;-87
2022/10/04 16:56:58;;;;;;;7.85;3.15;;;15.80;99.90;;;;;;4931377;28;20051;-88
2022/10/04 16:59:47;;;;;;;8.10;3.08;;;15.70;99.90;;;;;;4948105;28;20049;-86
2022/10/04 17:02:28;;;;;;;6.40;2.53;;;15.60;99.90;;;;;;4924038;28;20122;-86
2022/10/04 17:05:15;;;;;;;7.90;2.78;;;15.60;99.90;;;;;;4953217;28;20051;-86
2022/10/04 17:08:19;;;;;;;6.75;2.30;;;15.60;99.90;;;;;;4911555;28;21175;-85
2022/10/04 17:10:48;;;;;;;8.32;2.88;;;15.60;99.90;;;;;;4967567;28;20152;-85
2022/10/04 17:13:32;;;;;;;7.90;3.20;;;15.50;99.90;;;;;;4958439;28;20043;-85
2022/10/04 17:16:02;;;;;;;8.02;2.67;;;15.50;99.90;;;;;;4941461;28;20043;-86
2022/10/04 17:18:39;;;;;;;6.53;3.00;;;15.60;99.90;;;;;;4923817;28;20036;-85
2022/10/04 17:21:35;;;;;;;7.10;3.20;;;15.50;99.90;;;;;;4950691;28;20047;-86
2022/10/04 17:24:18;;;;;;;9.40;3.92;;;15.40;99.90;;;;;;4944896;28;20055;-87
2022/10/04 17:27:21;;;;;;;7.30;2.70;;;15.40;99.90;;;;;;4931413;28;20043;-86
2022/10/04 17:30:05;;;;;;;5.05;3.25;;;15.40;99.90;;;;;;4924319;28;20141;-85
2022/10/04 17:32:58;;;;;;;7.30;3.80;;;15.40;99.90;;;;;;4960749;28;20482;-86
2022/10/04 17:35:54;;;;;;;8.43;4.13;;;15.40;99.90;;;;;;4931886;28;20039;-86
2022/10/04 17:38:32;;;;;;;6.85;3.75;;;15.30;99.90;;;;;;4929669;28;20071;-85
2022/10/04 17:41:17;;;;;;;7.00;4.15;;;15.30;99.90;;;;;;4959085;28;20127;-86
2022/10/04 17:44:07;;;;;;;5.82;3.22;;;15.30;99.90;;;;;;4945032;28;20054;-86
2022/10/04 17:46:56;;;;;;;7.82;3.58;;;15.30;99.90;;;;;;4932024;28;20043;-86
2022/10/04 17:55:54;;;;;;;9.95;3.50;;;15.30;99.90;;;;;;4925893;28;20047;-87
2022/10/04 17:58:39;;;;;;;10.20;3.63;;;15.30;99.90;;;;;;4923333;28;20057;-85
2022/10/04 18:01:14;;;;;;;7.10;3.28;;;15.30;99.90;;;;;;4936948;28;20086;-85
2022/10/04 18:03:52;;;;;;;6.50;3.50;;;15.30;99.90;;;;;;4928923;28;20043;-86
2022/10/04 18:06:47;;;;;;;6.35;4.03;;;15.30;99.90;;;;;;4912379;28;20484;-86
2022/10/04 18:09:29;;;;;;;6.97;4.05;;;15.40;99.90;;;;;;4922853;28;20074;-85
2022/10/04 18:12:02;;;;;;;7.03;3.17;;;15.30;99.90;;;;;;4938354;28;20035;-85
2022/10/04 18:14:37;;;;;;;8.65;4.20;;;15.30;99.90;;;;;;4921841;28;20035;-86
2022/10/04 18:17:04;;;;;;;10.10;3.30;;;15.30;99.90;;;;;;4917074;28;20032;-86
2022/10/04 18:20:06;;;;;;;7.43;3.63;;;15.30;99.90;;;;;;4903981;28;20055;-85
2022/10/04 18:22:45;;;;;;;6.88;3.60;;;15.30;99.90;;;;;;4876979;28;20112;-84
2022/10/04 18:25:15;;;;;;;9.48;4.00;;;15.30;99.90;;;;;;4908134;28;20055;-86
2022/10/04 18:28:12;;;;;;;6.25;3.50;;;15.30;99.90;;;;;;4907927;28;20043;-85
2022/10/04 18:30:59;;;;;;;6.32;3.80;;;15.20;99.90;;;;;;4934449;28;20058;-83
2022/10/04 18:33:36;;;;;;;9.15;3.40;;;15.30;99.90;;;;;;4940486;28;20047;-84
2022/10/04 18:36:16;;;;;;;10.00;4.07;;;15.30;99.90;;;;;;4918510;28;20422;-85
2022/10/04 18:38:44;;;;;;;7.35;3.53;;;15.20;99.90;;;;;;4946033;28;20051;-85
2022/10/04 18:41:21;;;;;;;4.70;3.17;;;15.30;99.90;;;;;;4905166;28;20051;-83
2022/10/04 18:43:56;;;;;;;7.43;3.72;;;15.30;99.90;;;;;;4921886;28;20083;-83
2022/10/04 18:46:23;;;;;;;9.70;3.88;;;15.30;99.90;;;;;;4921842;28;20045;-83
2022/10/04 18:49:24;;;;;;;7.82;3.60;;;15.30;99.90;;;;;;4923115;28;20043;-85
2022/10/04 18:52:09;;;;;;;6.35;3.78;;;15.20;99.90;;;;;;4914494;28;20091;-84
2022/10/04 18:54:40;;;;;;;6.47;3.65;;;15.30;99.90;;;;;;4926562;28;20043;-86
2022/10/04 18:57:29;;;;;;;6.03;4.28;;;15.30;99.90;;;;;;4925158;28;20053;-86
2022/10/04 19:03:15;;;;;;;8.80;3.90;;;15.20;99.90;;;;;;4957167;28;20051;-84
2022/10/04 19:05:56;;;;;;;9.15;4.07;;;15.30;99.90;;;;;;4918473;28;20059;-85
2022/10/04 19:09:00;;;;;;;9.35;3.83;;;15.30;99.90;;;;;;4954680;28;20039;-84
2022/10/04 19:11:25;;;;;;;5.32;4.05;;;15.30;99.90;;;;;;4913369;28;20040;-85
2022/10/04 19:14:03;;;;;;;7.72;4.15;;;15.30;99.90;;;;;;4922939;28;20043;-86
2022/10/04 19:17:00;;;;;;;6.65;3.90;;;15.30;99.90;;;;;;4937767;28;20108;-85
2022/10/04 19:19:41;;;;;;;11.02;4.13;;;15.30;99.90;;;;;;4926550;28;20111;-85
2022/10/04 19:22:31;;;;;;;5.95;4.45;;;15.30;99.90;;;;;;4923750;28;20586;-85
2022/10/04 19:25:32;;;;;;;11.88;4.28;;;15.30;99.90;;;;;;4930192;28;20040;-85
2022/10/04 19:28:21;;;;;;;9.10;4.30;;;15.30;99.90;;;;;;4891176;28;20055;-84
2022/10/04 19:31:29;;;;;;;7.25;4.35;;;15.30;99.90;;;;;;4943309;28;20134;-84